Wilson Cadiz — 8PSY — position and weather

sailwx.info

Track history (hours):
 
Tides and Currents Weather Stations Pressure Air Temp Water Temp Dewpoint Dewpoint Depression Visibility Wind Speed Wind Dir Waves Ship Positions

Wilson Cadiz

Last reported at 2015-May-25 16:14 UTC. Time now 2015-May-26 05:46 UTC.
Position N 59°20' E 004°41'.

Length 100 m; draft 6 m.

Type: Ship. MMSI: 314216000.

Date/timePositionNaut miles runAvg speedWind from/ knotsBaromVisibWave heightAir tempDewpointWater temp
2015-May-25 16:14N 59°20' E 004°41'12 7.0
2015-May-25 14:28N 59°08' E 004°49'7 7.1
2015-May-25 13:33N 59°03' E 004°56'8 8.2
2015-May-25 12:33N 58°56' E 005°03'8 7.5
2015-May-25 11:33N 58°49' E 005°11'8 7.8
2015-May-25 10:32N 58°42' E 005°19'12 9.4
2015-May-25 09:14N 58°32' E 005°31'710.2
2015-May-25 08:31N 58°27' E 005°41'1010.3
2015-May-25 07:33N 58°19' E 005°52'1010.3
2015-May-25 06:33N 58°12' E 006°06'1010.1
2015-May-25 05:33N 58°05' E 006°21'137 9.0
2015-May-24 14:22N 57°48' E 010°36'8 9.9
2015-May-24 13:33N 57°47' E 010°51'1111.1
2015-May-24 12:32N 57°39' E 011°06'1010.6
2015-May-24 11:33N 57°32' E 011°20'1010.4
2015-May-24 10:33N 57°23' E 011°29'1110.9
2015-May-24 09:33N 57°12' E 011°36'1110.8
2015-May-24 08:33N 57°02' E 011°43'1110.9
2015-May-24 07:32N 56°52' E 011°50'1110.7
2015-May-24 06:33N 56°42' E 011°56'1110.6
2015-May-24 05:33N 56°32' E 012°00'1110.6
2015-May-24 04:31N 56°21' E 012°04'1010.3
2015-May-24 03:33N 56°14' E 012°17'1010.2
2015-May-24 02:33N 56°08' E 012°32'1110.7
2015-May-24 01:33N 55°59' E 012°42'1110.6
2015-May-24 00:33N 55°48' E 012°43'1111.0
2015-May-23 23:33N 55°37' E 012°42'1111.0
2015-May-23 22:33N 55°26' E 012°42'10 9.6
2015-May-23 21:33N 55°17' E 012°48'1111.0
2015-May-23 20:33N 55°16' E 013°07'1010.3
2015-May-23 19:33N 55°15' E 013°25'1610.9
2015-May-23 18:07N 55°14' E 013°52'1710.6
2015-May-23 16:33N 55°16' E 014°21'1110.9
2015-May-23 15:33N 55°24' E 014°34'1110.7
2015-May-23 14:33N 55°29' E 014°51'1110.6
2015-May-23 13:33N 55°31' E 015°10'1110.7
2015-May-23 12:33N 55°32' E 015°28'  
2015-May-20 18:33N 54°42' E 015°48'7311.4
2015-May-20 12:08N 53°53' E 014°16'5 7.8
2015-May-20 11:30N 53°48' E 014°20'1111.5
2015-May-20 10:33N 53°40' E 014°32'10 9.6
2015-May-20 09:34N 53°31' E 014°38'4 4.0
2015-May-20 08:33N 53°27' E 014°36'0 0.0
2015-May-20 07:33N 53°27' E 014°36'0 0.0
2015-May-20 06:33N 53°27' E 014°36'0 0.0
2015-May-20 05:33N 53°27' E 014°36'0 0.0
2015-May-20 04:33N 53°27' E 014°36'0 0.0
2015-May-20 03:33N 53°27' E 014°36'0 0.0
2015-May-20 02:33N 53°27' E 014°36'0 0.0
2015-May-20 01:33N 53°27' E 014°36'0 0.0
2015-May-20 00:33N 53°27' E 014°36'0 0.0
2015-May-19 23:33N 53°27' E 014°36'0 0.0
2015-May-19 22:33N 53°27' E 014°36'0 0.0
2015-May-19 21:33N 53°27' E 014°36'0 0.0
2015-May-19 20:33N 53°27' E 014°36'0 0.0
2015-May-19 19:33N 53°27' E 014°36'0 0.0
2015-May-19 18:33N 53°27' E 014°36'0 0.0
2015-May-19 17:33N 53°27' E 014°36'0 0.0
2015-May-19 16:33N 53°27' E 014°36'0 0.0
2015-May-19 15:33N 53°27' E 014°36'0 0.0
2015-May-19 14:33N 53°27' E 014°36'0 0.0
2015-May-19 13:33N 53°27' E 014°36'0 0.0
2015-May-19 12:33N 53°27' E 014°36'0 0.0
2015-May-19 11:33N 53°27' E 014°36'0 0.0
2015-May-19 10:33N 53°27' E 014°36'0 0.0
2015-May-19 09:33N 53°27' E 014°36'0 0.0
2015-May-19 08:33N 53°27' E 014°36'0 0.0
2015-May-19 07:33N 53°27' E 014°36'0 0.0
2015-May-19 06:33N 53°27' E 014°36'1 0.7
2015-May-19 05:33N 53°28' E 014°36'8 7.8
2015-May-19 04:32N 53°36' E 014°36'10 9.8
2015-May-19 03:33N 53°44' E 014°27'10 9.3
2015-May-19 02:28N 53°52' E 014°17'65 9.3
2015-May-18 19:29N 54°51' E 013°28'910.0
2015-May-18 18:33N 54°59' E 013°19'2110.3
2015-May-18 16:33N 55°13' E 012°54'1010.5
2015-May-18 15:33N 55°19' E 012°38'1010.1
2015-May-18 14:33N 55°29' E 012°41'10 9.8
2015-May-18 13:33N 55°39' E 012°41'1110.6
2015-May-18 12:33N 55°49' E 012°40'1110.7
2015-May-18 11:33N 55°60' E 012°37'1010.0
2015-May-18 10:33N 56°08' E 012°28'1111.3
2015-May-18 09:33N 56°15' E 012°11'2010.0
2015-May-18 07:32N 56°33' E 011°57'1111.5
2015-May-18 06:33N 56°44' E 011°53'1111.4
2015-May-18 05:33N 56°55' E 011°45'1211.8
2015-May-18 04:33N 57°06' E 011°38'1211.8
2015-May-18 03:33N 57°17' E 011°30'1111.5
2015-May-18 02:33N 57°28' E 011°23'1211.4
2015-May-18 01:33N 57°36' E 011°07'1211.9
2015-May-18 00:33N 57°44' E 010°51'1311.5
2015-May-17 23:25N 57°47' E 010°28'13210.8
2015-May-17 11:12N 58°04' E 006°22'6 9.8
2015-May-17 10:33N 58°09' E 006°14'10 9.7
2015-May-17 09:33N 58°15' E 006°00'10 9.6
2015-May-17 08:33N 58°22' E 005°47'10 9.7
2015-May-17 07:32N 58°29' E 005°33'2010.2
2015-May-17 05:33N 58°46' E 005°13'10 9.7
2015-May-17 04:33N 58°54' E 005°03'10 9.7
2015-May-17 03:33N 59°03' E 004°54'1010.4
2015-May-17 02:33N 59°11' E 004°43'  
Track history (hours):
 
Tides and Currents Weather Stations Pressure Air Temp Water Temp Dewpoint Dewpoint Depression Visibility Wind Speed Wind Dir Waves Ship Positions

Wilson Cadiz

Last reported at 2015-May-25 16:14 UTC. Time now 2015-May-26 05:46 UTC.
Position N 59°20' E 004°41'.

Length 100 m; draft 6 m.

Type: Ship. MMSI: 314216000.

Date/timePositionNaut miles runAvg speedWind from/ knotsBaromVisibWave heightAir tempDewpointWater temp
2015-May-25 16:14N 59°20' E 004°41'12 7.0
2015-May-25 14:28N 59°08' E 004°49'7 7.1
2015-May-25 13:33N 59°03' E 004°56'8 8.2
2015-May-25 12:33N 58°56' E 005°03'8 7.5
2015-May-25 11:33N 58°49' E 005°11'8 7.8
2015-May-25 10:32N 58°42' E 005°19'12 9.4
2015-May-25 09:14N 58°32' E 005°31'710.2
2015-May-25 08:31N 58°27' E 005°41'1010.3
2015-May-25 07:33N 58°19' E 005°52'1010.3
2015-May-25 06:33N 58°12' E 006°06'1010.1
2015-May-25 05:33N 58°05' E 006°21'137 9.0
2015-May-24 14:22N 57°48' E 010°36'8 9.9
2015-May-24 13:33N 57°47' E 010°51'1111.1
2015-May-24 12:32N 57°39' E 011°06'1010.6
2015-May-24 11:33N 57°32' E 011°20'1010.4
2015-May-24 10:33N 57°23' E 011°29'1110.9
2015-May-24 09:33N 57°12' E 011°36'1110.8
2015-May-24 08:33N 57°02' E 011°43'1110.9
2015-May-24 07:32N 56°52' E 011°50'1110.7
2015-May-24 06:33N 56°42' E 011°56'1110.6
2015-May-24 05:33N 56°32' E 012°00'1110.6
2015-May-24 04:31N 56°21' E 012°04'1010.3
2015-May-24 03:33N 56°14' E 012°17'1010.2
2015-May-24 02:33N 56°08' E 012°32'1110.7
2015-May-24 01:33N 55°59' E 012°42'1110.6
2015-May-24 00:33N 55°48' E 012°43'1111.0
2015-May-23 23:33N 55°37' E 012°42'1111.0
2015-May-23 22:33N 55°26' E 012°42'10 9.6
2015-May-23 21:33N 55°17' E 012°48'1111.0
2015-May-23 20:33N 55°16' E 013°07'1010.3
2015-May-23 19:33N 55°15' E 013°25'1610.9
2015-May-23 18:07N 55°14' E 013°52'1710.6
2015-May-23 16:33N 55°16' E 014°21'1110.9
2015-May-23 15:33N 55°24' E 014°34'1110.7
2015-May-23 14:33N 55°29' E 014°51'1110.6
2015-May-23 13:33N 55°31' E 015°10'1110.7
2015-May-23 12:33N 55°32' E 015°28'  
2015-May-20 18:33N 54°42' E 015°48'7311.4
2015-May-20 12:08N 53°53' E 014°16'5 7.8
2015-May-20 11:30N 53°48' E 014°20'1111.5
2015-May-20 10:33N 53°40' E 014°32'10 9.6
2015-May-20 09:34N 53°31' E 014°38'4 4.0
2015-May-20 08:33N 53°27' E 014°36'0 0.0
2015-May-20 07:33N 53°27' E 014°36'0 0.0
2015-May-20 06:33N 53°27' E 014°36'0 0.0
2015-May-20 05:33N 53°27' E 014°36'0 0.0
2015-May-20 04:33N 53°27' E 014°36'0 0.0
2015-May-20 03:33N 53°27' E 014°36'0 0.0
2015-May-20 02:33N 53°27' E 014°36'0 0.0
2015-May-20 01:33N 53°27' E 014°36'0 0.0
2015-May-20 00:33N 53°27' E 014°36'0 0.0
2015-May-19 23:33N 53°27' E 014°36'0 0.0
2015-May-19 22:33N 53°27' E 014°36'0 0.0
2015-May-19 21:33N 53°27' E 014°36'0 0.0
2015-May-19 20:33N 53°27' E 014°36'0 0.0
2015-May-19 19:33N 53°27' E 014°36'0 0.0
2015-May-19 18:33N 53°27' E 014°36'0 0.0
2015-May-19 17:33N 53°27' E 014°36'0 0.0
2015-May-19 16:33N 53°27' E 014°36'0 0.0
2015-May-19 15:33N 53°27' E 014°36'0 0.0
2015-May-19 14:33N 53°27' E 014°36'0 0.0
2015-May-19 13:33N 53°27' E 014°36'0 0.0
2015-May-19 12:33N 53°27' E 014°36'0 0.0
2015-May-19 11:33N 53°27' E 014°36'0 0.0
2015-May-19 10:33N 53°27' E 014°36'0 0.0
2015-May-19 09:33N 53°27' E 014°36'0 0.0
2015-May-19 08:33N 53°27' E 014°36'0 0.0
2015-May-19 07:33N 53°27' E 014°36'0 0.0
2015-May-19 06:33N 53°27' E 014°36'1 0.7
2015-May-19 05:33N 53°28' E 014°36'8 7.8
2015-May-19 04:32N 53°36' E 014°36'10 9.8
2015-May-19 03:33N 53°44' E 014°27'10 9.3
2015-May-19 02:28N 53°52' E 014°17'65 9.3
2015-May-18 19:29N 54°51' E 013°28'910.0
2015-May-18 18:33N 54°59' E 013°19'2110.3
2015-May-18 16:33N 55°13' E 012°54'1010.5
2015-May-18 15:33N 55°19' E 012°38'1010.1
2015-May-18 14:33N 55°29' E 012°41'10 9.8
2015-May-18 13:33N 55°39' E 012°41'1110.6
2015-May-18 12:33N 55°49' E 012°40'1110.7
2015-May-18 11:33N 55°60' E 012°37'1010.0
2015-May-18 10:33N 56°08' E 012°28'1111.3
2015-May-18 09:33N 56°15' E 012°11'2010.0
2015-May-18 07:32N 56°33' E 011°57'1111.5
2015-May-18 06:33N 56°44' E 011°53'1111.4
2015-May-18 05:33N 56°55' E 011°45'1211.8
2015-May-18 04:33N 57°06' E 011°38'1211.8
2015-May-18 03:33N 57°17' E 011°30'1111.5
2015-May-18 02:33N 57°28' E 011°23'1211.4
2015-May-18 01:33N 57°36' E 011°07'1211.9
2015-May-18 00:33N 57°44' E 010°51'1311.5
2015-May-17 23:25N 57°47' E 010°28'13210.8
2015-May-17 11:12N 58°04' E 006°22'6 9.8
2015-May-17 10:33N 58°09' E 006°14'10 9.7
2015-May-17 09:33N 58°15' E 006°00'10 9.6
2015-May-17 08:33N 58°22' E 005°47'10 9.7
2015-May-17 07:32N 58°29' E 005°33'2010.2
2015-May-17 05:33N 58°46' E 005°13'10 9.7
2015-May-17 04:33N 58°54' E 005°03'10 9.7
2015-May-17 03:33N 59°03' E 004°54'1010.4
2015-May-17 02:33N 59°11' E 004°43'  

Dump ship's entire track history